Time;durP1;ratioP1;P1;durP2;ratioP2;P2;SDS_P1;SDS_P2;PMS_P1;PMS_P2;Temp;Humidity;BMP_temperature;BMP_pressure;BME280_temperature;BME280_humidity;BME280_pressure;Samples;Min_cycle;Max_cycle;Signal;HPM_P1;HPM_P2
2023/08/15 00:00:05;;;;;;;0.75;0.75;;;;;;;;;;7394011;19;20347;-84
2023/08/15 00:02:31;;;;;;;0.90;0.90;;;;;;;;;;7393187;19;20360;-84
2023/08/15 00:04:58;;;;;;;1.40;1.00;;;;;;;;;;7385218;19;20378;-84
2023/08/15 00:07:25;;;;;;;0.70;0.70;;;;;;;;;;7393422;19;20352;-85
2023/08/15 00:09:52;;;;;;;0.80;0.75;;;;;;;;;;7392930;19;20413;-85
2023/08/15 00:12:18;;;;;;;0.82;0.82;;;;;;;;;;7392012;19;20368;-85
2023/08/15 00:14:45;;;;;;;0.80;0.80;;;;;;;;;;7387730;19;20357;-84
2023/08/15 00:17:12;;;;;;;0.60;0.60;;;;;;;;;;7390671;19;20371;-84
2023/08/15 00:19:39;;;;;;;2.95;1.10;;;;;;;;;;7392794;19;20716;-84
2023/08/15 00:22:05;;;;;;;0.70;0.70;;;;;;;;;;7393117;19;20890;-85
2023/08/15 00:24:32;;;;;;;0.65;0.65;;;;;;;;;;7391414;19;20420;-85
2023/08/15 00:26:59;;;;;;;1.08;0.98;;;;;;;;;;7391120;19;20345;-85
2023/08/15 00:29:25;;;;;;;0.50;0.50;;;;;;;;;;7392529;19;20687;-83
2023/08/15 00:31:52;;;;;;;1.07;0.80;;;;;;;;;;7389489;19;20356;-84
2023/08/15 00:34:18;;;;;;;0.60;0.60;;;;;;;;;;7392043;19;20691;-84
2023/08/15 00:36:45;;;;;;;0.50;0.50;;;;;;;;;;7390456;19;20388;-85
2023/08/15 00:39:12;;;;;;;0.50;0.50;;;;;;;;;;7391529;19;20373;-85
2023/08/15 00:41:38;;;;;;;0.77;0.75;;;;;;;;;;7391761;19;20340;-85
2023/08/15 00:44:05;;;;;;;0.60;0.60;;;;;;;;;;7391019;19;20348;-85
2023/08/15 00:46:32;;;;;;;0.70;0.70;;;;;;;;;;7381901;19;20360;-85
2023/08/15 00:48:59;;;;;;;0.80;0.80;;;;;;;;;;7390709;19;20332;-85
2023/08/15 00:51:28;;;;;;;0.90;0.90;;;;;;;;;;7394056;19;20339;-86
2023/08/15 00:53:54;;;;;;;0.50;0.50;;;;;;;;;;7395028;19;20412;-86
2023/08/15 00:56:21;;;;;;;0.60;0.60;;;;;;;;;;7392731;19;20361;-85
2023/08/15 00:58:48;;;;;;;0.50;0.50;;;;;;;;;;7393908;19;20333;-86
2023/08/15 01:01:15;;;;;;;0.50;0.50;;;;;;;;;;7394519;19;20440;-86
2023/08/15 01:03:42;;;;;;;0.40;0.40;;;;;;;;;;7393459;19;20836;-86
2023/08/15 01:06:09;;;;;;;0.52;0.52;;;;;;;;;;7390077;19;20348;-86
2023/08/15 01:08:36;;;;;;;1.00;1.00;;;;;;;;;;7392914;19;20408;-86
2023/08/15 01:11:04;;;;;;;0.88;0.88;;;;;;;;;;7389565;19;21113;-86
2023/08/15 01:13:35;;;;;;;0.80;0.80;;;;;;;;;;7390477;19;20348;-86
2023/08/15 01:16:05;;;;;;;0.65;0.60;;;;;;;;;;7387076;19;20424;-86
2023/08/15 01:18:35;;;;;;;0.75;0.75;;;;;;;;;;7392519;19;20370;-86
2023/08/15 01:21:02;;;;;;;0.70;0.70;;;;;;;;;;7393929;19;20340;-86
2023/08/15 01:23:39;;;;;;;1.00;1.00;;;;;;;;;;7389294;19;20348;-86
2023/08/15 01:26:06;;;;;;;0.60;0.60;;;;;;;;;;7395285;19;20364;-86
2023/08/15 01:28:32;;;;;;;1.42;0.85;;;;;;;;;;7398504;19;20355;-86
2023/08/15 01:31:05;;;;;;;0.70;0.70;;;;;;;;;;7398717;19;20352;-86
2023/08/15 01:34:01;;;;;;;0.50;0.50;;;;;;;;;;7400937;19;20355;-85
2023/08/15 01:36:33;;;;;;;0.80;0.80;;;;;;;;;;7395110;19;20376;-86
2023/08/15 01:39:01;;;;;;;0.73;0.73;;;;;;;;;;7396744;19;20348;-86
2023/08/15 01:41:29;;;;;;;0.60;0.60;;;;;;;;;;7394995;19;20910;-86
2023/08/15 01:43:56;;;;;;;0.60;0.60;;;;;;;;;;7391821;19;20810;-86
2023/08/15 01:46:22;;;;;;;0.70;0.70;;;;;;;;;;7396465;19;20335;-86
2023/08/15 01:48:49;;;;;;;1.80;1.30;;;;;;;;;;7397299;19;20364;-86
2023/08/15 01:51:16;;;;;;;0.60;0.60;;;;;;;;;;7397698;19;20890;-86
2023/08/15 01:53:42;;;;;;;0.85;0.85;;;;;;;;;;7394216;19;20364;-86
2023/08/15 01:56:09;;;;;;;0.80;0.80;;;;;;;;;;7394914;19;20423;-86
2023/08/15 01:58:36;;;;;;;0.57;0.57;;;;;;;;;;7398177;19;20420;-86
2023/08/15 02:01:03;;;;;;;0.93;0.65;;;;;;;;;;7400625;19;20378;-86
2023/08/15 02:03:30;;;;;;;0.80;0.80;;;;;;;;;;7401237;19;20380;-86
2023/08/15 02:05:56;;;;;;;0.70;0.70;;;;;;;;;;7398236;19;20348;-86
2023/08/15 02:08:23;;;;;;;0.60;0.60;;;;;;;;;;7401108;19;20357;-86
2023/08/15 02:10:53;;;;;;;0.52;0.52;;;;;;;;;;7397376;19;20340;-86
2023/08/15 02:13:19;;;;;;;0.50;0.50;;;;;;;;;;7398185;19;20376;-85
2023/08/15 02:15:46;;;;;;;0.80;0.80;;;;;;;;;;7398499;19;20341;-85
2023/08/15 02:18:13;;;;;;;0.98;0.88;;;;;;;;;;7400477;19;20364;-86
2023/08/15 02:20:39;;;;;;;0.63;0.63;;;;;;;;;;7398297;19;20380;-86
2023/08/15 02:23:06;;;;;;;0.55;0.55;;;;;;;;;;7395348;19;20360;-85
2023/08/15 02:25:33;;;;;;;0.73;0.73;;;;;;;;;;7392770;19;20354;-85
2023/08/15 02:27:59;;;;;;;0.77;0.77;;;;;;;;;;7394347;19;20905;-85
2023/08/15 02:30:26;;;;;;;0.70;0.70;;;;;;;;;;7392675;19;20696;-85
2023/08/15 02:32:53;;;;;;;0.47;0.47;;;;;;;;;;7393755;19;20356;-86
2023/08/15 02:35:20;;;;;;;0.68;0.68;;;;;;;;;;7395414;19;20384;-86
2023/08/15 02:37:47;;;;;;;0.60;0.60;;;;;;;;;;7393723;19;20697;-86
2023/08/15 02:40:13;;;;;;;0.57;0.57;;;;;;;;;;7392968;19;20338;-86
2023/08/15 02:42:40;;;;;;;0.70;0.70;;;;;;;;;;7393560;19;20357;-85
2023/08/15 02:45:07;;;;;;;0.82;0.70;;;;;;;;;;7394460;19;20360;-86
2023/08/15 02:47:34;;;;;;;6.00;0.70;;;;;;;;;;7391949;19;20353;-86
2023/08/15 02:50:00;;;;;;;0.60;0.60;;;;;;;;;;7393009;19;20930;-86
2023/08/15 02:52:27;;;;;;;0.45;0.45;;;;;;;;;;7394396;19;20424;-86
2023/08/15 02:54:54;;;;;;;0.73;0.73;;;;;;;;;;7392955;19;20384;-86
2023/08/15 02:57:21;;;;;;;0.50;0.50;;;;;;;;;;7391875;19;20438;-86
2023/08/15 02:59:48;;;;;;;0.40;0.40;;;;;;;;;;7387473;19;20382;-85
2023/08/15 03:02:15;;;;;;;0.60;0.60;;;;;;;;;;7394105;19;20414;-86
2023/08/15 03:04:42;;;;;;;0.75;0.75;;;;;;;;;;7389833;19;20353;-85
2023/08/15 03:07:09;;;;;;;1.20;0.63;;;;;;;;;;7390011;19;20931;-85
2023/08/15 03:09:35;;;;;;;0.40;0.40;;;;;;;;;;7390786;19;20364;-86
2023/08/15 03:12:02;;;;;;;0.60;0.60;;;;;;;;;;7389647;19;20351;-85
2023/08/15 03:14:29;;;;;;;0.57;0.57;;;;;;;;;;7391520;19;20343;-86
2023/08/15 03:16:56;;;;;;;0.90;0.90;;;;;;;;;;7390933;19;20361;-85
2023/08/15 03:19:22;;;;;;;0.90;0.90;;;;;;;;;;7394065;19;20336;-86
2023/08/15 03:21:49;;;;;;;0.60;0.60;;;;;;;;;;7394542;19;20341;-86
2023/08/15 03:24:16;;;;;;;0.52;0.52;;;;;;;;;;7396863;19;20741;-86
2023/08/15 03:26:43;;;;;;;0.50;0.50;;;;;;;;;;7390285;19;20695;-86
2023/08/15 03:29:09;;;;;;;;;;;;;;;;;;7397575;19;20010;-86
2023/08/15 03:31:36;;;;;;;;;;;;;;;;;;7394950;19;19930;-86
2023/08/15 03:34:02;;;;;;;;;;;;;;;;;;7397039;19;19917;-85
2023/08/15 03:36:29;;;;;;;;;;;;;;;;;;7400341;19;20324;-86
2023/08/15 03:38:55;;;;;;;;;;;;;;;;;;7393621;19;20253;-86
2023/08/15 03:41:22;;;;;;;;;;;;;;;;;;7393233;19;20326;-86
2023/08/15 03:43:48;;;;;;;;;;;;;;;;;;7395023;19;19911;-86
2023/08/15 03:46:15;;;;;;;;;;;;;;;;;;7397214;19;19915;-85
2023/08/15 03:48:42;;;;;;;;;;;;;;;;;;7396718;19;19919;-85
2023/08/15 03:51:08;;;;;;;;;;;;;;;;;;7393463;19;19970;-85
2023/08/15 03:53:38;;;;;;;;;;;;;;;;;;7399664;19;19929;-86
2023/08/15 03:56:04;;;;;;;;;;;;;;;;;;7399275;19;19907;-85
2023/08/15 03:58:31;;;;;;;;;;;;;;;;;;7399530;19;19931;-86
2023/08/15 04:00:57;;;;;;;;;;;;;;;;;;7393524;19;19919;-85
2023/08/15 04:03:24;;;;;;;0.65;0.65;;;;;;;;;;7396197;19;19995;-85
2023/08/15 04:05:51;;;;;;;0.88;0.88;;;;;;;;;;7389608;19;20828;-86
2023/08/15 04:08:17;;;;;;;0.93;0.55;;;;;;;;;;7397306;19;20328;-86
2023/08/15 04:10:45;;;;;;;0.70;0.70;;;;;;;;;;7398653;19;20926;-85
2023/08/15 04:13:12;;;;;;;0.80;0.80;;;;;;;;;;7397781;19;20384;-85
2023/08/15 04:15:39;;;;;;;0.60;0.60;;;;;;;;;;7391020;19;20359;-85
2023/08/15 04:18:07;;;;;;;0.50;0.50;;;;;;;;;;7390136;19;20337;-85
2023/08/15 04:20:38;;;;;;;0.85;0.85;;;;;;;;;;7392969;19;20345;-86
2023/08/15 04:23:06;;;;;;;1.23;1.13;;;;;;;;;;7395082;19;20336;-85
2023/08/15 04:25:33;;;;;;;0.40;0.40;;;;;;;;;;7415007;19;20351;-85
2023/08/15 04:28:00;;;;;;;0.60;0.60;;;;;;;;;;7413202;19;20412;-86
2023/08/15 04:30:29;;;;;;;0.70;0.70;;;;;;;;;;7417515;19;20348;-85
2023/08/15 04:32:58;;;;;;;0.75;0.75;;;;;;;;;;7417176;19;20360;-86
2023/08/15 04:35:26;;;;;;;0.50;0.50;;;;;;;;;;7402314;19;20352;-86
2023/08/15 04:37:52;;;;;;;0.52;0.52;;;;;;;;;;7390186;19;20427;-86
2023/08/15 04:40:30;;;;;;;0.65;0.65;;;;;;;;;;7387192;19;20344;-86
2023/08/15 04:42:57;;;;;;;0.90;0.90;;;;;;;;;;7388427;19;20728;-86
2023/08/15 04:45:24;;;;;;;0.60;0.60;;;;;;;;;;7385600;19;20365;-86
2023/08/15 04:47:52;;;;;;;0.55;0.55;;;;;;;;;;7384100;19;20355;-86
2023/08/15 04:50:18;;;;;;;0.82;0.68;;;;;;;;;;7385220;19;20423;-85
2023/08/15 04:52:45;;;;;;;1.50;0.90;;;;;;;;;;7387522;19;20691;-86
2023/08/15 04:55:13;;;;;;;0.70;0.70;;;;;;;;;;7389855;19;20361;-87
2023/08/15 04:57:40;;;;;;;0.43;0.43;;;;;;;;;;7403202;19;20368;-87
2023/08/15 05:00:11;;;;;;;0.60;0.60;;;;;;;;;;7407020;19;20360;-88
2023/08/15 05:02:38;;;;;;;0.55;0.55;;;;;;;;;;7405059;19;20357;-87
2023/08/15 05:05:06;;;;;;;0.52;0.52;;;;;;;;;;7405973;19;20423;-87
2023/08/15 05:07:33;;;;;;;0.60;0.60;;;;;;;;;;7407153;19;20374;-88
2023/08/15 05:09:59;;;;;;;1.00;0.50;;;;;;;;;;7406920;19;20738;-87
2023/08/15 05:12:26;;;;;;;0.70;0.70;;;;;;;;;;7407093;19;20365;-87
2023/08/15 05:14:53;;;;;;;0.70;0.70;;;;;;;;;;7404620;19;20336;-87
2023/08/15 05:17:19;;;;;;;0.50;0.50;;;;;;;;;;7400593;19;20349;-87
2023/08/15 05:19:47;;;;;;;1.00;1.00;;;;;;;;;;7400170;19;20366;-87
2023/08/15 05:22:14;;;;;;;0.75;0.75;;;;;;;;;;7399685;19;20343;-86
2023/08/15 05:24:41;;;;;;;0.67;0.67;;;;;;;;;;7399693;19;20676;-87
2023/08/15 05:27:12;;;;;;;0.45;0.45;;;;;;;;;;7399181;19;20438;-86
2023/08/15 05:29:43;;;;;;;0.90;0.90;;;;;;;;;;7399707;19;20416;-86
2023/08/15 05:32:10;;;;;;;0.88;0.88;;;;;;;;;;7398651;19;20919;-86
2023/08/15 05:34:37;;;;;;;0.90;0.70;;;;;;;;;;7400841;19;20875;-86
2023/08/15 05:37:04;;;;;;;0.60;0.60;;;;;;;;;;7398085;19;20918;-85
2023/08/15 05:39:30;;;;;;;0.80;0.80;;;;;;;;;;7400602;19;20368;-86
2023/08/15 05:41:57;;;;;;;0.68;0.68;;;;;;;;;;7400424;19;20688;-85
2023/08/15 05:44:24;;;;;;;0.70;0.70;;;;;;;;;;7400149;19;20934;-85
2023/08/15 05:46:50;;;;;;;0.80;0.80;;;;;;;;;;7398664;19;20357;-85
2023/08/15 05:49:17;;;;;;;0.60;0.60;;;;;;;;;;7399476;19;20350;-86
2023/08/15 05:51:44;;;;;;;1.40;0.60;;;;;;;;;;7397904;19;20945;-85
2023/08/15 05:54:10;;;;;;;0.60;0.60;;;;;;;;;;7400645;19;20824;-87
2023/08/15 05:56:37;;;;;;;0.50;0.50;;;;;;;;;;7398297;19;20349;-87
2023/08/15 05:59:04;;;;;;;1.08;0.88;;;;;;;;;;7397246;19;20693;-87
2023/08/15 06:01:33;;;;;;;0.60;0.60;;;;;;;;;;7398626;19;20349;-88
2023/08/15 06:04:00;;;;;;;0.60;0.60;;;;;;;;;;7396211;19;20362;-88
2023/08/15 06:06:29;;;;;;;0.90;0.90;;;;;;;;;;7398417;19;20349;-88
2023/08/15 06:08:57;;;;;;;3.47;0.98;;;;;;;;;;7398985;19;20411;-87
2023/08/15 06:11:23;;;;;;;0.60;0.60;;;;;;;;;;7395005;19;20364;-87
2023/08/15 06:13:50;;;;;;;0.98;0.98;;;;;;;;;;7397682;19;20344;-86
2023/08/15 06:16:17;;;;;;;0.80;0.80;;;;;;;;;;7393897;19;20364;-87
2023/08/15 06:18:43;;;;;;;0.50;0.50;;;;;;;;;;7395918;19;20356;-88
2023/08/15 06:21:10;;;;;;;0.95;0.95;;;;;;;;;;7398377;19;20898;-85
2023/08/15 06:23:37;;;;;;;0.80;0.80;;;;;;;;;;7399077;19;20353;-86
2023/08/15 06:26:04;;;;;;;0.70;0.70;;;;;;;;;;7398222;19;20359;-86
2023/08/15 06:28:30;;;;;;;1.10;1.10;;;;;;;;;;7396674;19;20363;-86
2023/08/15 06:30:57;;;;;;;0.60;0.60;;;;;;;;;;7397111;19;20328;-86
2023/08/15 06:33:24;;;;;;;0.90;0.90;;;;;;;;;;7394741;19;20365;-86
2023/08/15 06:35:50;;;;;;;1.10;0.98;;;;;;;;;;7398580;19;20903;-86
2023/08/15 06:38:17;;;;;;;0.80;0.80;;;;;;;;;;7391784;19;20424;-86
2023/08/15 06:40:43;;;;;;;0.70;0.70;;;;;;;;;;7393860;19;20447;-86
2023/08/15 06:43:10;;;;;;;1.05;1.05;;;;;;;;;;7393302;19;20343;-86
2023/08/15 06:45:37;;;;;;;1.10;1.08;;;;;;;;;;7393126;19;20349;-85
2023/08/15 06:48:05;;;;;;;0.77;0.77;;;;;;;;;;7392081;19;20357;-87
2023/08/15 06:50:32;;;;;;;0.97;0.97;;;;;;;;;;7392591;19;20340;-86
2023/08/15 06:52:59;;;;;;;0.68;0.68;;;;;;;;;;7399297;19;20344;-87
2023/08/15 06:55:26;;;;;;;0.90;0.90;;;;;;;;;;7400085;19;20344;-87
2023/08/15 06:57:53;;;;;;;0.60;0.60;;;;;;;;;;7397975;19;20911;-87
2023/08/15 07:00:20;;;;;;;1.10;1.08;;;;;;;;;;7395584;19;20356;-85
2023/08/15 07:02:47;;;;;;;0.82;0.82;;;;;;;;;;7397872;19;20733;-86
2023/08/15 07:05:13;;;;;;;0.90;0.82;;;;;;;;;;7397050;19;20344;-86
2023/08/15 07:07:40;;;;;;;1.58;0.93;;;;;;;;;;7398847;19;20867;-86
2023/08/15 07:10:07;;;;;;;0.70;0.70;;;;;;;;;;7395511;19;20701;-86
2023/08/15 07:12:34;;;;;;;0.80;0.80;;;;;;;;;;7394159;19;20349;-86
2023/08/15 07:15:01;;;;;;;1.02;1.02;;;;;;;;;;7395509;19;20836;-85
2023/08/15 07:17:28;;;;;;;0.82;0.82;;;;;;;;;;7396216;19;20389;-86
2023/08/15 07:19:55;;;;;;;0.80;0.80;;;;;;;;;;7396460;19;20903;-86
2023/08/15 07:22:22;;;;;;;0.95;0.75;;;;;;;;;;7395232;19;20351;-86
2023/08/15 07:24:49;;;;;;;0.67;0.67;;;;;;;;;;7394319;19;20902;-86
2023/08/15 07:27:16;;;;;;;0.95;0.95;;;;;;;;;;7396096;19;20753;-86
2023/08/15 07:29:43;;;;;;;0.70;0.70;;;;;;;;;;7396416;19;20894;-86
2023/08/15 07:32:10;;;;;;;0.80;0.80;;;;;;;;;;7394942;19;20344;-86
2023/08/15 07:34:39;;;;;;;0.73;0.73;;;;;;;;;;7397174;19;20351;-86
2023/08/15 07:37:06;;;;;;;0.70;0.70;;;;;;;;;;7392335;19;20341;-87
2023/08/15 07:39:32;;;;;;;0.70;0.70;;;;;;;;;;7393350;19;20744;-86
2023/08/15 07:41:59;;;;;;;0.40;0.40;;;;;;;;;;7397066;19;20148;-86
2023/08/15 07:44:27;;;;;;;0.80;0.80;;;;;;;;;;7398708;19;20141;-87
2023/08/15 07:46:54;;;;;;;1.52;1.38;;;;;;;;;;7393092;19;20213;-87
2023/08/15 07:49:20;;;;;;;0.60;0.60;;;;;;;;;;7395760;19;20149;-87
2023/08/15 07:51:47;;;;;;;1.30;1.20;;;;;;;;;;7391670;19;20375;-87
2023/08/15 07:54:14;;;;;;;0.95;0.95;;;;;;;;;;7393525;19;20428;-87
2023/08/15 07:56:41;;;;;;;0.60;0.60;;;;;;;;;;7391767;19;20983;-87
2023/08/15 07:59:07;;;;;;;0.80;0.80;;;;;;;;;;7392110;19;20360;-87
2023/08/15 08:01:34;;;;;;;0.68;0.68;;;;;;;;;;7391124;19;20344;-87
2023/08/15 08:04:01;;;;;;;1.20;1.00;;;;;;;;;;7392646;19;20885;-87
2023/08/15 08:06:28;;;;;;;1.00;1.00;;;;;;;;;;7389789;19;20898;-87
2023/08/15 08:08:57;;;;;;;0.73;0.73;;;;;;;;;;7390210;19;20361;-87
2023/08/15 08:11:24;;;;;;;0.73;0.73;;;;;;;;;;7389743;19;20411;-87
2023/08/15 08:13:51;;;;;;;0.63;0.63;;;;;;;;;;7392226;19;20351;-87
2023/08/15 08:16:18;;;;;;;1.10;1.00;;;;;;;;;;7390646;19;20381;-87
2023/08/15 08:18:45;;;;;;;0.70;0.70;;;;;;;;;;7390902;19;20344;-87
2023/08/15 08:21:11;;;;;;;0.68;0.68;;;;;;;;;;7394262;19;20176;-88
2023/08/15 08:23:38;;;;;;;1.42;0.98;;;;;;;;;;7395167;19;20200;-87
2023/08/15 08:26:05;;;;;;;0.85;0.85;;;;;;;;;;7390481;19;20168;-87
2023/08/15 08:28:32;;;;;;;0.93;0.80;;;;;;;;;;7396336;19;20572;-88
2023/08/15 08:30:58;;;;;;;0.75;0.75;;;;;;;;;;7399717;19;20152;-88
2023/08/15 08:33:26;;;;;;;0.82;0.82;;;;;;;;;;7402853;19;20488;-88
2023/08/15 08:35:52;;;;;;;0.68;0.68;;;;;;;;;;7398648;19;20175;-89
2023/08/15 08:38:19;;;;;;;1.30;1.17;;;;;;;;;;7401535;19;20152;-87
2023/08/15 08:40:47;;;;;;;0.57;0.57;;;;;;;;;;7401735;19;20532;-88
2023/08/15 08:43:15;;;;;;;0.52;0.52;;;;;;;;;;7401481;19;20151;-87
2023/08/15 08:45:47;;;;;;;1.00;1.00;;;;;;;;;;7399274;19;20181;-88
2023/08/15 08:48:15;;;;;;;0.90;0.90;;;;;;;;;;7402627;19;20132;-88
2023/08/15 08:50:41;;;;;;;0.70;0.70;;;;;;;;;;7401457;19;20149;-88
2023/08/15 08:53:08;;;;;;;0.98;0.98;;;;;;;;;;7401874;19;20235;-88
2023/08/15 08:55:35;;;;;;;0.93;0.93;;;;;;;;;;7400479;19;20169;-88
2023/08/15 08:58:02;;;;;;;0.60;0.60;;;;;;;;;;7401269;19;20161;-88
2023/08/15 09:00:33;;;;;;;0.63;0.63;;;;;;;;;;7402160;19;20157;-87
2023/08/15 09:03:00;;;;;;;2.50;1.70;;;;;;;;;;7402580;19;20165;-89
2023/08/15 09:05:27;;;;;;;15.63;1.15;;;;;;;;;;7402699;19;20168;-87
2023/08/15 09:07:54;;;;;;;1.00;1.00;;;;;;;;;;7400784;19;20376;-89
2023/08/15 09:10:21;;;;;;;0.90;0.90;;;;;;;;;;7400907;19;20413;-88
2023/08/15 09:12:48;;;;;;;3.30;1.20;;;;;;;;;;7428560;19;20341;-87
2023/08/15 09:15:15;;;;;;;1.10;0.50;;;;;;;;;;7431031;19;20356;-88
2023/08/15 09:17:42;;;;;;;0.80;0.80;;;;;;;;;;7432620;19;20365;-89
2023/08/15 09:20:14;;;;;;;1.50;1.40;;;;;;;;;;7429295;19;20390;-90
2023/08/15 09:22:46;;;;;;;0.80;0.80;;;;;;;;;;7432791;19;20396;-87
2023/08/15 09:25:20;;;;;;;0.80;0.80;;;;;;;;;;7432297;19;20373;-89
2023/08/15 09:27:47;;;;;;;1.50;0.77;;;;;;;;;;7410548;19;20768;-87
2023/08/15 09:30:14;;;;;;;1.00;1.00;;;;;;;;;;7405672;19;20344;-88
2023/08/15 09:32:43;;;;;;;1.20;1.13;;;;;;;;;;7407061;19;20144;-88
2023/08/15 09:35:12;;;;;;;0.68;0.68;;;;;;;;;;7406273;19;20612;-88
2023/08/15 09:37:43;;;;;;;1.13;1.13;;;;;;;;;;7410177;19;20133;-87
2023/08/15 09:40:30;;;;;;;0.50;0.50;;;;;;;;;;7403916;19;20160;-86
2023/08/15 09:42:57;;;;;;;1.15;1.15;;;;;;;;;;7427826;19;20137;-89
2023/08/15 09:45:24;;;;;;;0.60;0.60;;;;;;;;;;7434015;19;20320;-88
2023/08/15 09:47:51;;;;;;;0.40;0.40;;;;;;;;;;7432099;19;20129;-89
2023/08/15 09:50:18;;;;;;;1.42;1.33;;;;;;;;;;7431054;19;20133;-89
2023/08/15 09:52:46;;;;;;;1.52;0.88;;;;;;;;;;7433058;19;20133;-89
2023/08/15 09:55:18;;;;;;;1.30;0.85;;;;;;;;;;7432816;19;20170;-91
2023/08/15 09:57:45;;;;;;;0.73;0.73;;;;;;;;;;7415128;19;20633;-88
2023/08/15 10:00:13;;;;;;;0.77;0.77;;;;;;;;;;7403352;19;20189;-88
2023/08/15 10:02:59;;;;;;;0.47;0.47;;;;;;;;;;7404018;19;20607;-88
2023/08/15 10:05:31;;;;;;;0.60;0.60;;;;;;;;;;7403701;19;20161;-87
2023/08/15 10:07:58;;;;;;;2.63;1.38;;;;;;;;;;7402135;19;20775;-88
2023/08/15 10:10:26;;;;;;;0.82;0.82;;;;;;;;;;7399931;19;20189;-88
2023/08/15 10:12:54;;;;;;;0.50;0.50;;;;;;;;;;7400410;19;20157;-90
2023/08/15 10:15:21;;;;;;;0.90;0.90;;;;;;;;;;7399484;19;20176;-88
2023/08/15 10:17:49;;;;;;;0.63;0.63;;;;;;;;;;7399938;19;20528;-88
2023/08/15 10:20:18;;;;;;;0.70;0.70;;;;;;;;;;7395679;19;20162;-87
2023/08/15 10:22:49;;;;;;;1.20;1.02;;;;;;;;;;7400575;19;20136;-88
2023/08/15 10:25:31;;;;;;;0.95;0.82;;;;;;;;;;7404149;19;20188;-88
2023/08/15 10:27:58;;;;;;;1.15;1.05;;;;;;;;;;7403090;19;20212;-89
2023/08/15 10:30:29;;;;;;;0.85;0.85;;;;;;;;;;7399759;19;20164;-89
2023/08/15 10:33:01;;;;;;;0.68;0.68;;;;;;;;;;7405312;19;20145;-88
2023/08/15 10:35:31;;;;;;;0.80;0.80;;;;;;;;;;7418892;19;20145;-86
2023/08/15 10:37:58;;;;;;;0.82;0.82;;;;;;;;;;7429641;19;20145;-88
2023/08/15 10:40:38;;;;;;;0.98;0.98;;;;;;;;;;7429588;19;20129;-87
2023/08/15 10:43:07;;;;;;;1.85;1.75;;;;;;;;;;7426956;19;20149;-88
2023/08/15 10:45:36;;;;;;;0.50;0.50;;;;;;;;;;7397105;19;20176;-87
2023/08/15 10:48:03;;;;;;;0.95;0.95;;;;;;;;;;7396315;19;20523;-88
2023/08/15 10:50:32;;;;;;;0.45;0.45;;;;;;;;;;7395322;19;20351;-88
2023/08/15 10:53:04;;;;;;;0.68;0.68;;;;;;;;;;7392998;19;20178;-88
2023/08/15 10:55:34;;;;;;;0.90;0.88;;;;;;;;;;7392870;19;20160;-89
2023/08/15 10:58:04;;;;;;;0.73;0.73;;;;;;;;;;7396449;19;20216;-88
2023/08/15 11:00:32;;;;;;;0.82;0.82;;;;;;;;;;7392795;19;20224;-88
2023/08/15 11:03:01;;;;;;;0.90;0.90;;;;;;;;;;7393953;19;20316;-87
2023/08/15 11:05:28;;;;;;;1.10;1.00;;;;;;;;;;7393350;19;20378;-87
2023/08/15 11:08:15;;;;;;;0.52;0.52;;;;;;;;;;7397223;19;20406;-88
2023/08/15 11:10:45;;;;;;;0.82;0.82;;;;;;;;;;7395510;19;20153;-88
2023/08/15 11:13:12;;;;;;;0.75;0.75;;;;;;;;;;7395152;19;20228;-88
2023/08/15 11:15:39;;;;;;;0.52;0.52;;;;;;;;;;7395256;19;20190;-90
2023/08/15 11:18:05;;;;;;;0.50;0.50;;;;;;;;;;7395794;19;20617;-88
2023/08/15 11:20:33;;;;;;;0.70;0.70;;;;;;;;;;7392013;19;20357;-88
2023/08/15 11:22:59;;;;;;;0.70;0.60;;;;;;;;;;7391876;19;20906;-89
2023/08/15 11:25:26;;;;;;;0.60;0.60;;;;;;;;;;7393264;19;20347;-89
2023/08/15 11:27:53;;;;;;;0.73;0.73;;;;;;;;;;7393213;19;20356;-89
2023/08/15 11:30:20;;;;;;;0.60;0.60;;;;;;;;;;7394474;19;20383;-89
2023/08/15 11:32:46;;;;;;;0.90;0.90;;;;;;;;;;7394163;19;20376;-89
2023/08/15 11:35:13;;;;;;;0.68;0.68;;;;;;;;;;7394938;19;20368;-90
2023/08/15 11:37:40;;;;;;;0.65;0.65;;;;;;;;;;7394636;19;20360;-90
2023/08/15 11:40:08;;;;;;;0.80;0.80;;;;;;;;;;7397737;19;20151;-90
2023/08/15 11:42:35;;;;;;;0.60;0.60;;;;;;;;;;7396367;19;20140;-89
2023/08/15 11:45:07;;;;;;;;;;;;;;;;;;7396600;19;20066;-91
2023/08/15 11:47:34;;;;;;;1.20;0.95;;;;;;;;;;7390468;19;20418;-90
2023/08/15 11:50:10;;;;;;;0.80;0.80;;;;;;;;;;7395955;19;20525;-89
2023/08/15 11:52:43;;;;;;;1.27;1.10;;;;;;;;;;7394879;19;20147;-89
2023/08/15 11:55:10;;;;;;;0.68;0.68;;;;;;;;;;7394330;19;20180;-91
2023/08/15 11:57:37;;;;;;;0.60;0.60;;;;;;;;;;7396479;19;20538;-90
2023/08/15 12:00:05;;;;;;;1.42;1.33;;;;;;;;;;7396093;19;20141;-89
2023/08/15 12:02:35;;;;;;;;;;;;;;;;;;7400264;19;20030;-90
2023/08/15 12:05:18;;;;;;;0.80;0.80;;;;;;;;;;7395981;19;20588;-89
2023/08/15 12:07:46;;;;;;;0.75;0.75;;;;;;;;;;7397532;19;20145;-88
2023/08/15 12:10:15;;;;;;;0.60;0.60;;;;;;;;;;7397461;19;20224;-90
2023/08/15 12:12:46;;;;;;;0.95;0.95;;;;;;;;;;7398867;19;20155;-92
2023/08/15 12:15:14;;;;;;;1.33;1.27;;;;;;;;;;7396701;19;20129;-90
2023/08/15 12:17:41;;;;;;;1.10;1.10;;;;;;;;;;7395019;19;20417;-91
2023/08/15 12:20:12;;;;;;;0.90;0.90;;;;;;;;;;7392887;19;20413;-91
2023/08/15 12:22:39;;;;;;;0.73;0.73;;;;;;;;;;7397258;19;20332;-91
2023/08/15 12:25:09;;;;;;;0.90;0.90;;;;;;;;;;7396000;19;20368;-89
2023/08/15 12:27:37;;;;;;;0.60;0.60;;;;;;;;;;7397607;19;20144;-92
2023/08/15 12:30:04;;;;;;;1.27;1.10;;;;;;;;;;7394079;19;20491;-91
2023/08/15 12:32:41;;;;;;;0.40;0.40;;;;;;;;;;7400003;19;20152;-92
2023/08/15 12:35:08;;;;;;;0.50;0.50;;;;;;;;;;7406882;19;20137;-89
2023/08/15 12:37:35;;;;;;;0.75;0.75;;;;;;;;;;7404180;19;20137;-89
2023/08/15 12:40:02;;;;;;;0.80;0.80;;;;;;;;;;7399262;19;20133;-88
2023/08/15 12:42:30;;;;;;;1.35;0.82;;;;;;;;;;7393503;19;20701;-92
2023/08/15 12:44:57;;;;;;;0.70;0.70;;;;;;;;;;7395928;19;20436;-91
2023/08/15 12:47:23;;;;;;;0.70;0.70;;;;;;;;;;7396304;19;20392;-89
2023/08/15 12:49:50;;;;;;;0.80;0.80;;;;;;;;;;7392720;19;20359;-89
2023/08/15 12:52:17;;;;;;;0.90;0.90;;;;;;;;;;7393588;19;20906;-89
2023/08/15 12:54:44;;;;;;;0.63;0.63;;;;;;;;;;7397021;19;20384;-91
